Freedom, Ohio
Current Conditions -  °F | °C
As of 3:55 PM on Tuesday 27 Jan 2015 (Local Time) from KPOV Reporting Station
Light Snow Light Snow  
Wind Chill: 10°   Ceiling: 1700
Heat Index: 19°   Visibility: 7mi
Dew Point: 10°   Wind: 7mph
Humidity: 66%   Direction: 310°NW
Pressure: 30.04"   Gusts: NA
Location:  41.2385°N, 81.0761°W
Report Text: KPOV 272055Z AUTO 31006KT 7SM -SN BKN017 BKN022 OVC047 M07/M12 A3004 RMK AO2 T10721125
Loading
Personal Weather Stations






























Interactive Weather Map New forecast layout! Learn more

10-Day Weather Forecast

Advertisements
Track Severe Weather on mobile